sensor_id;sensor_type;location;lat;lon;timestamp;P1;durP1;ratioP1;P2;durP2;ratioP2
30966;SDS011;17649;51.836;8.330;2023-02-15T00:01:04;47.85;;;24.33;;
30966;SDS011;17649;51.836;8.330;2023-02-15T00:04:06;44.65;;;23.40;;
30966;SDS011;17649;51.836;8.330;2023-02-15T00:07:07;53.92;;;23.50;;
30966;SDS011;17649;51.836;8.330;2023-02-15T00:10:08;53.65;;;24.17;;
30966;SDS011;17649;51.836;8.330;2023-02-15T00:13:08;49.40;;;24.02;;
30966;SDS011;17649;51.836;8.330;2023-02-15T00:16:09;39.97;;;21.85;;
30966;SDS011;17649;51.836;8.330;2023-02-15T00:19:12;41.95;;;21.55;;
30966;SDS011;17649;51.836;8.330;2023-02-15T00:22:15;42.90;;;23.02;;
30966;SDS011;17649;51.836;8.330;2023-02-15T00:25:16;46.30;;;21.80;;
30966;SDS011;17649;51.836;8.330;2023-02-15T00:28:16;48.75;;;22.73;;
30966;SDS011;17649;51.836;8.330;2023-02-15T00:31:16;47.17;;;20.77;;
30966;SDS011;17649;51.836;8.330;2023-02-15T00:34:18;44.22;;;22.48;;
30966;SDS011;17649;51.836;8.330;2023-02-15T00:37:21;40.83;;;21.55;;
30966;SDS011;17649;51.836;8.330;2023-02-15T00:40:22;41.03;;;21.42;;
30966;SDS011;17649;51.836;8.330;2023-02-15T00:43:22;45.45;;;22.80;;
30966;SDS011;17649;51.836;8.330;2023-02-15T00:46:23;44.88;;;22.52;;
30966;SDS011;17649;51.836;8.330;2023-02-15T00:49:23;43.72;;;20.88;;
30966;SDS011;17649;51.836;8.330;2023-02-15T00:52:23;40.25;;;20.08;;
30966;SDS011;17649;51.836;8.330;2023-02-15T00:55:24;48.15;;;22.45;;
30966;SDS011;17649;51.836;8.330;2023-02-15T00:58:24;41.40;;;20.67;;
30966;SDS011;17649;51.836;8.330;2023-02-15T01:01:25;38.22;;;19.10;;
30966;SDS011;17649;51.836;8.330;2023-02-15T01:04:25;37.08;;;19.08;;
30966;SDS011;17649;51.836;8.330;2023-02-15T01:07:26;35.42;;;18.45;;
30966;SDS011;17649;51.836;8.330;2023-02-15T01:10:27;35.70;;;19.10;;
30966;SDS011;17649;51.836;8.330;2023-02-15T01:13:27;31.93;;;15.47;;
30966;SDS011;17649;51.836;8.330;2023-02-15T01:16:28;33.00;;;18.42;;
30966;SDS011;17649;51.836;8.330;2023-02-15T01:19:28;42.72;;;20.50;;
30966;SDS011;17649;51.836;8.330;2023-02-15T01:22:29;35.97;;;17.92;;
30966;SDS011;17649;51.836;8.330;2023-02-15T01:25:29;36.28;;;18.50;;
30966;SDS011;17649;51.836;8.330;2023-02-15T01:28:30;38.20;;;18.88;;
30966;SDS011;17649;51.836;8.330;2023-02-15T01:31:31;26.67;;;14.73;;
30966;SDS011;17649;51.836;8.330;2023-02-15T01:34:31;39.92;;;20.02;;
30966;SDS011;17649;51.836;8.330;2023-02-15T01:37:32;37.90;;;19.77;;
30966;SDS011;17649;51.836;8.330;2023-02-15T01:40:33;42.13;;;20.63;;
30966;SDS011;17649;51.836;8.330;2023-02-15T01:43:44;41.50;;;19.70;;
30966;SDS011;17649;51.836;8.330;2023-02-15T01:46:50;35.38;;;18.75;;
30966;SDS011;17649;51.836;8.330;2023-02-15T01:49:58;40.28;;;19.15;;
30966;SDS011;17649;51.836;8.330;2023-02-15T01:53:05;40.50;;;19.40;;
30966;SDS011;17649;51.836;8.330;2023-02-15T01:56:13;34.22;;;18.65;;
30966;SDS011;17649;51.836;8.330;2023-02-15T01:59:19;38.15;;;19.90;;
30966;SDS011;17649;51.836;8.330;2023-02-15T02:02:21;36.80;;;19.67;;
30966;SDS011;17649;51.836;8.330;2023-02-15T02:05:24;45.15;;;19.90;;
30966;SDS011;17649;51.836;8.330;2023-02-15T02:08:24;37.40;;;19.67;;
30966;SDS011;17649;51.836;8.330;2023-02-15T02:11:25;39.28;;;19.83;;
30966;SDS011;17649;51.836;8.330;2023-02-15T02:14:25;39.88;;;19.13;;
30966;SDS011;17649;51.836;8.330;2023-02-15T02:17:31;48.15;;;19.98;;
30966;SDS011;17649;51.836;8.330;2023-02-15T02:35:23;36.65;;;18.40;;
30966;SDS011;17649;51.836;8.330;2023-02-15T02:41:56;36.22;;;17.98;;
30966;SDS011;17649;51.836;8.330;2023-02-15T02:48:10;39.35;;;18.88;;
30966;SDS011;17649;51.836;8.330;2023-02-15T02:51:17;37.53;;;18.70;;
30966;SDS011;17649;51.836;8.330;2023-02-15T02:54:21;44.28;;;18.88;;
30966;SDS011;17649;51.836;8.330;2023-02-15T02:57:22;41.53;;;19.85;;
30966;SDS011;17649;51.836;8.330;2023-02-15T03:00:27;41.60;;;19.73;;
30966;SDS011;17649;51.836;8.330;2023-02-15T03:03:34;31.48;;;18.17;;
30966;SDS011;17649;51.836;8.330;2023-02-15T03:06:55;34.97;;;18.90;;
30966;SDS011;17649;51.836;8.330;2023-02-15T03:10:00;34.22;;;18.45;;
30966;SDS011;17649;51.836;8.330;2023-02-15T03:13:03;33.03;;;18.08;;
30966;SDS011;17649;51.836;8.330;2023-02-15T03:16:05;33.97;;;17.92;;
30966;SDS011;17649;51.836;8.330;2023-02-15T03:19:33;39.70;;;18.45;;
30966;SDS011;17649;51.836;8.330;2023-02-15T03:22:36;39.97;;;19.10;;
30966;SDS011;17649;51.836;8.330;2023-02-15T03:26:07;40.77;;;18.67;;
30966;SDS011;17649;51.836;8.330;2023-02-15T03:29:08;40.78;;;19.70;;
30966;SDS011;17649;51.836;8.330;2023-02-15T03:32:10;36.97;;;18.63;;
30966;SDS011;17649;51.836;8.330;2023-02-15T03:35:12;37.13;;;18.67;;
30966;SDS011;17649;51.836;8.330;2023-02-15T03:38:13;34.88;;;17.50;;
30966;SDS011;17649;51.836;8.330;2023-02-15T03:41:19;38.78;;;18.38;;
30966;SDS011;17649;51.836;8.330;2023-02-15T03:44:29;39.67;;;18.20;;
30966;SDS011;17649;51.836;8.330;2023-02-15T03:47:31;36.72;;;18.77;;
30966;SDS011;17649;51.836;8.330;2023-02-15T03:50:36;33.85;;;17.23;;
30966;SDS011;17649;51.836;8.330;2023-02-15T03:53:56;34.70;;;18.00;;
30966;SDS011;17649;51.836;8.330;2023-02-15T03:56:58;34.90;;;18.05;;
30966;SDS011;17649;51.836;8.330;2023-02-15T04:00:22;38.60;;;17.98;;
30966;SDS011;17649;51.836;8.330;2023-02-15T04:03:48;38.97;;;17.38;;
30966;SDS011;17649;51.836;8.330;2023-02-15T04:06:56;38.67;;;18.63;;
30966;SDS011;17649;51.836;8.330;2023-02-15T04:09:56;37.72;;;19.52;;
30966;SDS011;17649;51.836;8.330;2023-02-15T04:13:15;30.23;;;16.70;;
30966;SDS011;17649;51.836;8.330;2023-02-15T04:16:16;41.50;;;18.25;;
30966;SDS011;17649;51.836;8.330;2023-02-15T04:19:16;39.72;;;17.88;;
30966;SDS011;17649;51.836;8.330;2023-02-15T04:22:35;35.85;;;17.80;;
30966;SDS011;17649;51.836;8.330;2023-02-15T04:25:54;39.47;;;17.83;;
30966;SDS011;17649;51.836;8.330;2023-02-15T04:28:54;33.78;;;17.52;;
30966;SDS011;17649;51.836;8.330;2023-02-15T04:31:56;38.22;;;17.75;;
30966;SDS011;17649;51.836;8.330;2023-02-15T04:34:58;36.35;;;18.60;;
30966;SDS011;17649;51.836;8.330;2023-02-15T04:37:59;39.45;;;19.50;;
30966;SDS011;17649;51.836;8.330;2023-02-15T04:40:59;33.53;;;17.33;;
30966;SDS011;17649;51.836;8.330;2023-02-15T04:44:00;36.85;;;17.67;;
30966;SDS011;17649;51.836;8.330;2023-02-15T04:47:00;38.17;;;18.95;;
30966;SDS011;17649;51.836;8.330;2023-02-15T04:50:01;34.78;;;17.98;;
30966;SDS011;17649;51.836;8.330;2023-02-15T04:53:01;38.17;;;18.73;;
30966;SDS011;17649;51.836;8.330;2023-02-15T04:56:02;36.88;;;18.92;;
30966;SDS011;17649;51.836;8.330;2023-02-15T04:59:02;41.72;;;19.10;;
30966;SDS011;17649;51.836;8.330;2023-02-15T05:02:03;43.30;;;20.67;;
30966;SDS011;17649;51.836;8.330;2023-02-15T05:05:03;43.00;;;19.83;;
30966;SDS011;17649;51.836;8.330;2023-02-15T05:08:04;44.97;;;23.45;;
30966;SDS011;17649;51.836;8.330;2023-02-15T05:11:04;39.75;;;19.65;;
30966;SDS011;17649;51.836;8.330;2023-02-15T05:14:04;37.17;;;18.23;;
30966;SDS011;17649;51.836;8.330;2023-02-15T05:17:05;37.50;;;18.67;;
30966;SDS011;17649;51.836;8.330;2023-02-15T05:20:06;40.72;;;19.02;;
30966;SDS011;17649;51.836;8.330;2023-02-15T05:23:07;45.42;;;20.55;;
30966;SDS011;17649;51.836;8.330;2023-02-15T05:26:16;37.33;;;18.83;;
30966;SDS011;17649;51.836;8.330;2023-02-15T05:29:36;38.05;;;17.73;;
30966;SDS011;17649;51.836;8.330;2023-02-15T05:32:39;41.65;;;17.15;;
30966;SDS011;17649;51.836;8.330;2023-02-15T05:35:40;48.22;;;19.38;;
30966;SDS011;17649;51.836;8.330;2023-02-15T05:38:40;40.47;;;17.10;;
30966;SDS011;17649;51.836;8.330;2023-02-15T05:41:41;32.03;;;16.73;;
30966;SDS011;17649;51.836;8.330;2023-02-15T05:44:41;52.03;;;18.45;;
30966;SDS011;17649;51.836;8.330;2023-02-15T05:47:42;46.28;;;18.40;;
30966;SDS011;17649;51.836;8.330;2023-02-15T05:50:42;49.83;;;19.50;;
30966;SDS011;17649;51.836;8.330;2023-02-15T05:53:42;43.55;;;18.88;;
30966;SDS011;17649;51.836;8.330;2023-02-15T05:56:43;40.78;;;18.63;;
30966;SDS011;17649;51.836;8.330;2023-02-15T05:59:43;42.75;;;18.50;;
30966;SDS011;17649;51.836;8.330;2023-02-15T06:02:44;39.35;;;17.75;;
30966;SDS011;17649;51.836;8.330;2023-02-15T06:05:44;37.20;;;17.35;;
30966;SDS011;17649;51.836;8.330;2023-02-15T06:08:44;41.40;;;17.13;;
30966;SDS011;17649;51.836;8.330;2023-02-15T06:11:45;38.40;;;17.63;;
30966;SDS011;17649;51.836;8.330;2023-02-15T06:14:46;36.55;;;17.08;;
30966;SDS011;17649;51.836;8.330;2023-02-15T06:17:52;32.03;;;16.75;;
30966;SDS011;17649;51.836;8.330;2023-02-15T06:21:12;41.40;;;18.77;;
30966;SDS011;17649;51.836;8.330;2023-02-15T06:24:38;38.53;;;16.13;;
30966;SDS011;17649;51.836;8.330;2023-02-15T06:27:40;38.28;;;17.25;;
30966;SDS011;17649;51.836;8.330;2023-02-15T06:30:41;49.47;;;16.83;;
30966;SDS011;17649;51.836;8.330;2023-02-15T06:33:42;35.30;;;15.85;;
30966;SDS011;17649;51.836;8.330;2023-02-15T06:36:42;37.20;;;15.98;;
30966;SDS011;17649;51.836;8.330;2023-02-15T06:39:44;54.22;;;17.48;;
30966;SDS011;17649;51.836;8.330;2023-02-15T06:42:44;40.72;;;16.40;;
30966;SDS011;17649;51.836;8.330;2023-02-15T06:45:45;36.05;;;17.13;;
30966;SDS011;17649;51.836;8.330;2023-02-15T06:48:45;36.42;;;17.05;;
30966;SDS011;17649;51.836;8.330;2023-02-15T06:51:45;43.63;;;16.20;;
30966;SDS011;17649;51.836;8.330;2023-02-15T06:54:46;46.40;;;18.90;;
30966;SDS011;17649;51.836;8.330;2023-02-15T06:57:46;38.83;;;17.50;;
30966;SDS011;17649;51.836;8.330;2023-02-15T07:00:46;43.47;;;17.98;;
30966;SDS011;17649;51.836;8.330;2023-02-15T07:03:46;39.08;;;19.17;;
30966;SDS011;17649;51.836;8.330;2023-02-15T07:06:47;41.65;;;19.08;;
30966;SDS011;17649;51.836;8.330;2023-02-15T07:09:47;39.75;;;17.33;;
30966;SDS011;17649;51.836;8.330;2023-02-15T07:12:47;41.05;;;19.80;;
30966;SDS011;17649;51.836;8.330;2023-02-15T07:15:48;40.35;;;17.08;;
30966;SDS011;17649;51.836;8.330;2023-02-15T07:18:49;41.40;;;19.48;;
30966;SDS011;17649;51.836;8.330;2023-02-15T07:21:49;42.97;;;19.50;;
30966;SDS011;17649;51.836;8.330;2023-02-15T07:24:50;45.17;;;19.48;;
30966;SDS011;17649;51.836;8.330;2023-02-15T07:27:57;49.28;;;19.75;;
30966;SDS011;17649;51.836;8.330;2023-02-15T07:31:02;48.55;;;18.60;;
30966;SDS011;17649;51.836;8.330;2023-02-15T07:34:05;40.10;;;19.00;;
30966;SDS011;17649;51.836;8.330;2023-02-15T07:37:06;46.28;;;20.08;;
30966;SDS011;17649;51.836;8.330;2023-02-15T07:40:07;48.70;;;20.30;;
30966;SDS011;17649;51.836;8.330;2023-02-15T07:43:07;44.70;;;20.55;;
30966;SDS011;17649;51.836;8.330;2023-02-15T07:46:09;53.20;;;20.33;;
30966;SDS011;17649;51.836;8.330;2023-02-15T07:49:16;58.03;;;21.80;;
30966;SDS011;17649;51.836;8.330;2023-02-15T07:52:28;48.17;;;22.25;;
30966;SDS011;17649;51.836;8.330;2023-02-15T07:55:36;51.15;;;23.38;;
30966;SDS011;17649;51.836;8.330;2023-02-15T07:58:47;50.20;;;22.60;;
30966;SDS011;17649;51.836;8.330;2023-02-15T08:01:58;44.58;;;21.67;;
30966;SDS011;17649;51.836;8.330;2023-02-15T08:04:58;56.33;;;23.23;;
30966;SDS011;17649;51.836;8.330;2023-02-15T08:07:58;50.10;;;22.67;;
30966;SDS011;17649;51.836;8.330;2023-02-15T08:14:29;51.42;;;22.52;;
30966;SDS011;17649;51.836;8.330;2023-02-15T08:17:29;44.28;;;21.08;;
30966;SDS011;17649;51.836;8.330;2023-02-15T08:20:29;47.17;;;21.08;;
30966;SDS011;17649;51.836;8.330;2023-02-15T08:23:30;39.63;;;19.95;;
30966;SDS011;17649;51.836;8.330;2023-02-15T08:26:30;40.22;;;18.80;;
30966;SDS011;17649;51.836;8.330;2023-02-15T08:29:31;41.25;;;19.08;;
30966;SDS011;17649;51.836;8.330;2023-02-15T08:32:33;38.22;;;18.35;;
30966;SDS011;17649;51.836;8.330;2023-02-15T08:35:33;39.67;;;17.42;;
30966;SDS011;17649;51.836;8.330;2023-02-15T08:38:33;38.42;;;18.30;;
30966;SDS011;17649;51.836;8.330;2023-02-15T08:41:34;34.38;;;17.48;;
30966;SDS011;17649;51.836;8.330;2023-02-15T08:44:36;37.17;;;18.77;;
30966;SDS011;17649;51.836;8.330;2023-02-15T08:47:36;37.03;;;17.70;;
30966;SDS011;17649;51.836;8.330;2023-02-15T08:50:36;38.38;;;17.85;;
30966;SDS011;17649;51.836;8.330;2023-02-15T08:53:41;34.85;;;17.15;;
30966;SDS011;17649;51.836;8.330;2023-02-15T08:56:43;40.83;;;18.85;;
30966;SDS011;17649;51.836;8.330;2023-02-15T08:59:44;34.17;;;16.65;;
30966;SDS011;17649;51.836;8.330;2023-02-15T09:02:44;39.95;;;18.50;;
30966;SDS011;17649;51.836;8.330;2023-02-15T09:05:45;34.15;;;17.48;;
30966;SDS011;17649;51.836;8.330;2023-02-15T09:08:45;37.30;;;17.30;;
30966;SDS011;17649;51.836;8.330;2023-02-15T09:11:46;35.58;;;16.13;;
30966;SDS011;17649;51.836;8.330;2023-02-15T09:14:48;32.85;;;16.10;;
30966;SDS011;17649;51.836;8.330;2023-02-15T09:17:48;31.13;;;14.18;;
30966;SDS011;17649;51.836;8.330;2023-02-15T09:20:49;30.15;;;15.77;;
30966;SDS011;17649;51.836;8.330;2023-02-15T09:23:50;32.47;;;15.82;;
30966;SDS011;17649;51.836;8.330;2023-02-15T09:26:52;26.05;;;14.95;;
30966;SDS011;17649;51.836;8.330;2023-02-15T09:29:52;26.63;;;14.90;;
30966;SDS011;17649;51.836;8.330;2023-02-15T09:32:53;28.13;;;14.63;;
30966;SDS011;17649;51.836;8.330;2023-02-15T09:35:53;34.53;;;15.77;;
30966;SDS011;17649;51.836;8.330;2023-02-15T09:38:54;29.35;;;15.15;;
30966;SDS011;17649;51.836;8.330;2023-02-15T09:45:35;32.63;;;14.80;;
30966;SDS011;17649;51.836;8.330;2023-02-15T09:49:49;27.95;;;14.80;;
30966;SDS011;17649;51.836;8.330;2023-02-15T09:56:26;33.65;;;14.10;;
30966;SDS011;17649;51.836;8.330;2023-02-15T10:03:01;32.25;;;14.20;;
30966;SDS011;17649;51.836;8.330;2023-02-15T10:16:23;31.33;;;13.48;;
30966;SDS011;17649;51.836;8.330;2023-02-15T10:26:59;30.50;;;13.68;;
30966;SDS011;17649;51.836;8.330;2023-02-15T10:30:25;24.23;;;13.05;;
30966;SDS011;17649;51.836;8.330;2023-02-15T10:33:40;32.63;;;13.43;;
30966;SDS011;17649;51.836;8.330;2023-02-15T10:47:19;24.17;;;11.43;;
30966;SDS011;17649;51.836;8.330;2023-02-15T11:00:46;26.20;;;12.02;;
30966;SDS011;17649;51.836;8.330;2023-02-15T11:04:10;23.80;;;12.85;;
30966;SDS011;17649;51.836;8.330;2023-02-15T11:10:37;23.88;;;12.68;;
30966;SDS011;17649;51.836;8.330;2023-02-15T11:13:43;25.55;;;12.32;;
30966;SDS011;17649;51.836;8.330;2023-02-15T11:16:49;31.75;;;11.93;;
30966;SDS011;17649;51.836;8.330;2023-02-15T11:19:58;21.58;;;11.57;;
30966;SDS011;17649;51.836;8.330;2023-02-15T11:23:12;24.23;;;12.00;;
30966;SDS011;17649;51.836;8.330;2023-02-15T11:26:21;31.55;;;13.65;;
30966;SDS011;17649;51.836;8.330;2023-02-15T11:29:33;23.83;;;12.43;;
30966;SDS011;17649;51.836;8.330;2023-02-15T11:32:42;27.08;;;11.32;;
30966;SDS011;17649;51.836;8.330;2023-02-15T11:35:48;24.77;;;11.35;;
30966;SDS011;17649;51.836;8.330;2023-02-15T11:38:58;22.88;;;12.32;;
30966;SDS011;17649;51.836;8.330;2023-02-15T11:42:05;24.13;;;12.95;;
30966;SDS011;17649;51.836;8.330;2023-02-15T11:45:27;19.25;;;11.43;;
30966;SDS011;17649;51.836;8.330;2023-02-15T11:48:28;23.48;;;12.32;;
30966;SDS011;17649;51.836;8.330;2023-02-15T11:51:31;23.15;;;12.07;;
30966;SDS011;17649;51.836;8.330;2023-02-15T11:54:32;26.13;;;12.48;;
30966;SDS011;17649;51.836;8.330;2023-02-15T11:57:39;23.98;;;12.27;;
30966;SDS011;17649;51.836;8.330;2023-02-15T12:00:55;22.30;;;12.43;;
30966;SDS011;17649;51.836;8.330;2023-02-15T12:10:40;26.40;;;13.20;;
30966;SDS011;17649;51.836;8.330;2023-02-15T12:13:58;22.05;;;11.82;;
30966;SDS011;17649;51.836;8.330;2023-02-15T12:17:00;23.20;;;12.70;;
30966;SDS011;17649;51.836;8.330;2023-02-15T12:20:03;21.40;;;12.38;;
30966;SDS011;17649;51.836;8.330;2023-02-15T12:23:20;23.83;;;12.68;;
30966;SDS011;17649;51.836;8.330;2023-02-15T12:26:29;23.33;;;12.18;;
30966;SDS011;17649;51.836;8.330;2023-02-15T12:29:39;25.00;;;14.05;;
30966;SDS011;17649;51.836;8.330;2023-02-15T12:32:54;28.48;;;14.43;;
30966;SDS011;17649;51.836;8.330;2023-02-15T12:36:01;26.85;;;13.73;;
30966;SDS011;17649;51.836;8.330;2023-02-15T12:42:20;27.17;;;13.55;;
30966;SDS011;17649;51.836;8.330;2023-02-15T12:48:42;31.20;;;14.27;;
30966;SDS011;17649;51.836;8.330;2023-02-15T12:55:24;25.35;;;13.00;;
30966;SDS011;17649;51.836;8.330;2023-02-15T12:58:33;26.25;;;13.88;;
30966;SDS011;17649;51.836;8.330;2023-02-15T13:01:38;22.15;;;12.73;;
30966;SDS011;17649;51.836;8.330;2023-02-15T13:04:38;27.60;;;13.23;;
30966;SDS011;17649;51.836;8.330;2023-02-15T13:07:50;25.50;;;13.45;;
30966;SDS011;17649;51.836;8.330;2023-02-15T13:10:57;28.48;;;12.43;;
30966;SDS011;17649;51.836;8.330;2023-02-15T13:13:59;27.92;;;13.40;;
30966;SDS011;17649;51.836;8.330;2023-02-15T13:17:03;27.55;;;13.18;;
30966;SDS011;17649;51.836;8.330;2023-02-15T13:20:05;27.25;;;14.10;;
30966;SDS011;17649;51.836;8.330;2023-02-15T13:23:26;23.67;;;13.33;;
30966;SDS011;17649;51.836;8.330;2023-02-15T13:26:29;22.20;;;11.73;;
30966;SDS011;17649;51.836;8.330;2023-02-15T13:29:33;23.13;;;12.48;;
30966;SDS011;17649;51.836;8.330;2023-02-15T13:32:37;25.38;;;13.18;;
30966;SDS011;17649;51.836;8.330;2023-02-15T13:35:42;29.45;;;13.95;;
30966;SDS011;17649;51.836;8.330;2023-02-15T13:42:04;23.77;;;12.40;;
30966;SDS011;17649;51.836;8.330;2023-02-15T14:01:46;22.30;;;13.27;;
30966;SDS011;17649;51.836;8.330;2023-02-15T14:18:24;22.05;;;12.75;;
30966;SDS011;17649;51.836;8.330;2023-02-15T14:21:31;25.50;;;13.35;;
30966;SDS011;17649;51.836;8.330;2023-02-15T14:27:53;23.73;;;13.65;;
30966;SDS011;17649;51.836;8.330;2023-02-15T14:31:04;21.48;;;13.18;;
30966;SDS011;17649;51.836;8.330;2023-02-15T14:41:10;24.63;;;13.25;;
30966;SDS011;17649;51.836;8.330;2023-02-15T14:44:25;25.98;;;14.23;;
30966;SDS011;17649;51.836;8.330;2023-02-15T14:47:36;25.10;;;14.35;;
30966;SDS011;17649;51.836;8.330;2023-02-15T14:50:44;25.35;;;12.40;;
30966;SDS011;17649;51.836;8.330;2023-02-15T14:53:46;24.50;;;15.18;;
30966;SDS011;17649;51.836;8.330;2023-02-15T14:57:19;24.52;;;13.80;;
30966;SDS011;17649;51.836;8.330;2023-02-15T15:00:28;24.60;;;14.02;;
30966;SDS011;17649;51.836;8.330;2023-02-15T15:03:43;34.55;;;14.70;;
30966;SDS011;17649;51.836;8.330;2023-02-15T15:10:43;25.95;;;14.18;;
30966;SDS011;17649;51.836;8.330;2023-02-15T15:23:49;29.05;;;14.27;;
30966;SDS011;17649;51.836;8.330;2023-02-15T15:26:50;33.92;;;15.48;;
30966;SDS011;17649;51.836;8.330;2023-02-15T15:50:43;24.30;;;13.70;;
30966;SDS011;17649;51.836;8.330;2023-02-15T15:53:45;30.95;;;15.93;;
30966;SDS011;17649;51.836;8.330;2023-02-15T15:56:59;28.45;;;14.52;;
30966;SDS011;17649;51.836;8.330;2023-02-15T16:00:02;30.02;;;15.55;;
30966;SDS011;17649;51.836;8.330;2023-02-15T16:03:03;32.17;;;14.63;;
30966;SDS011;17649;51.836;8.330;2023-02-15T16:06:05;31.10;;;14.75;;
30966;SDS011;17649;51.836;8.330;2023-02-15T16:09:13;33.33;;;14.23;;
30966;SDS011;17649;51.836;8.330;2023-02-15T16:12:19;28.88;;;14.93;;
30966;SDS011;17649;51.836;8.330;2023-02-15T16:15:21;25.88;;;14.57;;
30966;SDS011;17649;51.836;8.330;2023-02-15T16:18:24;33.67;;;15.30;;
30966;SDS011;17649;51.836;8.330;2023-02-15T16:21:29;35.15;;;15.48;;
30966;SDS011;17649;51.836;8.330;2023-02-15T16:25:19;29.77;;;15.77;;
30966;SDS011;17649;51.836;8.330;2023-02-15T16:28:28;33.85;;;17.13;;
30966;SDS011;17649;51.836;8.330;2023-02-15T16:35:35;36.00;;;15.82;;
30966;SDS011;17649;51.836;8.330;2023-02-15T16:39:40;33.13;;;16.25;;
30966;SDS011;17649;51.836;8.330;2023-02-15T16:42:46;38.60;;;15.82;;
30966;SDS011;17649;51.836;8.330;2023-02-15T16:45:53;46.13;;;17.75;;
30966;SDS011;17649;51.836;8.330;2023-02-15T16:49:25;34.95;;;16.23;;
30966;SDS011;17649;51.836;8.330;2023-02-15T16:52:29;30.10;;;16.15;;
30966;SDS011;17649;51.836;8.330;2023-02-15T16:55:39;39.45;;;16.38;;
30966;SDS011;17649;51.836;8.330;2023-02-15T16:58:42;37.53;;;18.20;;
30966;SDS011;17649;51.836;8.330;2023-02-15T17:01:45;46.97;;;19.80;;
30966;SDS011;17649;51.836;8.330;2023-02-15T17:05:11;42.92;;;19.52;;
30966;SDS011;17649;51.836;8.330;2023-02-15T17:11:33;46.83;;;19.83;;
30966;SDS011;17649;51.836;8.330;2023-02-15T17:14:41;36.20;;;16.33;;
30966;SDS011;17649;51.836;8.330;2023-02-15T17:17:41;33.88;;;17.35;;
30966;SDS011;17649;51.836;8.330;2023-02-15T17:20:42;32.65;;;15.05;;
30966;SDS011;17649;51.836;8.330;2023-02-15T17:23:45;31.37;;;15.13;;
30966;SDS011;17649;51.836;8.330;2023-02-15T17:26:51;27.88;;;14.38;;
30966;SDS011;17649;51.836;8.330;2023-02-15T17:30:04;41.67;;;15.73;;
30966;SDS011;17649;51.836;8.330;2023-02-15T17:33:24;28.17;;;14.57;;
30966;SDS011;17649;51.836;8.330;2023-02-15T17:36:35;28.30;;;13.15;;
30966;SDS011;17649;51.836;8.330;2023-02-15T17:40:00;28.48;;;14.25;;
30966;SDS011;17649;51.836;8.330;2023-02-15T17:43:10;31.08;;;14.63;;
30966;SDS011;17649;51.836;8.330;2023-02-15T17:46:16;28.02;;;14.85;;
30966;SDS011;17649;51.836;8.330;2023-02-15T17:49:22;32.92;;;15.85;;
30966;SDS011;17649;51.836;8.330;2023-02-15T17:52:27;30.75;;;15.57;;
30966;SDS011;17649;51.836;8.330;2023-02-15T17:55:31;32.10;;;17.08;;
30966;SDS011;17649;51.836;8.330;2023-02-15T17:58:39;35.75;;;16.48;;
30966;SDS011;17649;51.836;8.330;2023-02-15T18:01:44;43.17;;;19.55;;
30966;SDS011;17649;51.836;8.330;2023-02-15T18:05:10;30.80;;;16.17;;
30966;SDS011;17649;51.836;8.330;2023-02-15T18:08:36;30.05;;;16.15;;
30966;SDS011;17649;51.836;8.330;2023-02-15T18:11:56;32.70;;;14.93;;
30966;SDS011;17649;51.836;8.330;2023-02-15T18:14:57;34.95;;;15.20;;
30966;SDS011;17649;51.836;8.330;2023-02-15T18:18:04;28.70;;;15.15;;
30966;SDS011;17649;51.836;8.330;2023-02-15T18:21:32;29.90;;;14.68;;
30966;SDS011;17649;51.836;8.330;2023-02-15T18:24:59;27.33;;;15.23;;
30966;SDS011;17649;51.836;8.330;2023-02-15T18:28:03;27.45;;;15.32;;
30966;SDS011;17649;51.836;8.330;2023-02-15T18:31:04;35.40;;;16.60;;
30966;SDS011;17649;51.836;8.330;2023-02-15T18:34:04;40.42;;;20.63;;
30966;SDS011;17649;51.836;8.330;2023-02-15T18:37:09;37.15;;;19.67;;
30966;SDS011;17649;51.836;8.330;2023-02-15T18:40:16;33.60;;;16.60;;
30966;SDS011;17649;51.836;8.330;2023-02-15T18:43:18;37.97;;;16.20;;
30966;SDS011;17649;51.836;8.330;2023-02-15T18:46:18;30.58;;;15.15;;
30966;SDS011;17649;51.836;8.330;2023-02-15T18:49:19;30.67;;;15.15;;
30966;SDS011;17649;51.836;8.330;2023-02-15T18:52:23;25.88;;;15.25;;
30966;SDS011;17649;51.836;8.330;2023-02-15T18:55:29;33.95;;;16.80;;
30966;SDS011;17649;51.836;8.330;2023-02-15T18:58:31;33.15;;;17.27;;
30966;SDS011;17649;51.836;8.330;2023-02-15T19:01:31;34.22;;;16.90;;
30966;SDS011;17649;51.836;8.330;2023-02-15T19:04:32;34.72;;;17.70;;
30966;SDS011;17649;51.836;8.330;2023-02-15T19:07:32;36.45;;;17.40;;
30966;SDS011;17649;51.836;8.330;2023-02-15T19:10:34;35.33;;;17.10;;
30966;SDS011;17649;51.836;8.330;2023-02-15T19:13:34;29.30;;;17.35;;
30966;SDS011;17649;51.836;8.330;2023-02-15T19:16:37;29.30;;;16.35;;
30966;SDS011;17649;51.836;8.330;2023-02-15T19:19:37;34.15;;;16.60;;
30966;SDS011;17649;51.836;8.330;2023-02-15T19:22:42;39.17;;;17.52;;
30966;SDS011;17649;51.836;8.330;2023-02-15T19:26:37;33.88;;;16.63;;
30966;SDS011;17649;51.836;8.330;2023-02-15T19:29:46;36.75;;;16.95;;
30966;SDS011;17649;51.836;8.330;2023-02-15T19:33:08;41.35;;;17.73;;
30966;SDS011;17649;51.836;8.330;2023-02-15T19:36:16;41.10;;;18.40;;
30966;SDS011;17649;51.836;8.330;2023-02-15T19:39:32;37.38;;;18.13;;
30966;SDS011;17649;51.836;8.330;2023-02-15T19:42:36;46.17;;;19.88;;
30966;SDS011;17649;51.836;8.330;2023-02-15T19:45:37;45.13;;;18.92;;
30966;SDS011;17649;51.836;8.330;2023-02-15T19:48:37;39.25;;;18.17;;
30966;SDS011;17649;51.836;8.330;2023-02-15T19:51:37;43.17;;;19.27;;
30966;SDS011;17649;51.836;8.330;2023-02-15T19:54:39;44.00;;;22.35;;
30966;SDS011;17649;51.836;8.330;2023-02-15T19:57:39;47.10;;;21.45;;
30966;SDS011;17649;51.836;8.330;2023-02-15T20:00:39;39.17;;;20.20;;
30966;SDS011;17649;51.836;8.330;2023-02-15T20:03:39;41.00;;;19.30;;
30966;SDS011;17649;51.836;8.330;2023-02-15T20:06:40;39.60;;;19.40;;
30966;SDS011;17649;51.836;8.330;2023-02-15T20:09:40;35.80;;;18.85;;
30966;SDS011;17649;51.836;8.330;2023-02-15T20:12:42;35.97;;;17.57;;
30966;SDS011;17649;51.836;8.330;2023-02-15T20:15:43;41.67;;;18.35;;
30966;SDS011;17649;51.836;8.330;2023-02-15T20:18:44;44.53;;;19.55;;
30966;SDS011;17649;51.836;8.330;2023-02-15T20:21:45;45.60;;;22.48;;
30966;SDS011;17649;51.836;8.330;2023-02-15T20:24:51;55.00;;;24.85;;
30966;SDS011;17649;51.836;8.330;2023-02-15T20:27:54;46.28;;;23.13;;
30966;SDS011;17649;51.836;8.330;2023-02-15T20:30:57;55.97;;;25.38;;
30966;SDS011;17649;51.836;8.330;2023-02-15T20:33:57;59.85;;;27.75;;
30966;SDS011;17649;51.836;8.330;2023-02-15T20:36:58;68.82;;;30.48;;
30966;SDS011;17649;51.836;8.330;2023-02-15T20:39:58;63.80;;;29.20;;
30966;SDS011;17649;51.836;8.330;2023-02-15T20:42:59;62.67;;;28.50;;
30966;SDS011;17649;51.836;8.330;2023-02-15T20:46:00;61.40;;;24.65;;
30966;SDS011;17649;51.836;8.330;2023-02-15T20:49:01;46.63;;;23.42;;
30966;SDS011;17649;51.836;8.330;2023-02-15T20:52:02;38.50;;;20.45;;
30966;SDS011;17649;51.836;8.330;2023-02-15T20:55:16;49.58;;;22.15;;
30966;SDS011;17649;51.836;8.330;2023-02-15T20:58:27;48.33;;;23.15;;
30966;SDS011;17649;51.836;8.330;2023-02-15T21:01:29;47.15;;;23.60;;
30966;SDS011;17649;51.836;8.330;2023-02-15T21:04:31;44.67;;;21.48;;